PWSweather.com
Personal Weather Stations
Station Observations
SONYA
Sergiev PosadRU

Sergiev PosadRU

Lat: 56.28148651, Lon: 38.05462646

Elevation: 741

Station Type: Fine offset WH1091

Latest ConditionsUpdated 1:27:00 PM GMT+03:03 Thursday, Nov 21, 2019
Currently Today's Max Today's Min Today's Average
Temperature 22.6°F-5.2°C 23.5°F-4.7°C 13.5°F-10.3°C 17.3°F-8.2°C
Dew Point 11.7°F-11.3°C 12.2°F-11.0°C 6.0°F-14.4°C 7.8°F-13.4°C
Winds 2.2 mph NE3.5 kmh NE 10.7 mph -17.2 kmh - - 4.1 mph 6.6 kmh
Wind Gusts 4.5 mph7.2 kmh 13.0 mph20.9 kmh - -
Humidity 50% 61% 48% 54%
Pressure 30.42 in1030.1 mb 30.83 in1044.0 mb 30.42 in1030.1 mb -
Hour Temp Dew Point Humidity Winds Wind Gusts Pressure Precip Precip Rate Daily Precip Total
01:27 PM 22.6°F-5.2°C 11.7°F-11.3°C 50% 2.2 mph NE3.5 kmh NE 4.5 mph7.2 kmh 30.42 in1030.1 mb 0.00 in0.0 mm 0.00 in0.0 mm 0.00 in0.0 mm
01:22 PM 22.5°F-5.3°C 11.2°F-11.6°C 49% 5.4 mph E8.7 kmh E 7.6 mph12.2 kmh 30.80 in1043.0 mb 0.00 in0.0 mm 0.00 in0.0 mm 0.00 in0.0 mm
01:17 PM 22.6°F-5.2°C 11.4°F-11.4°C 49% 3.8 mph NE6.1 kmh NE 6.0 mph9.7 kmh 30.81 in1043.3 mb 0.00 in0.0 mm 0.00 in0.0 mm 0.00 in0.0 mm
01:12 PM 23.2°F-4.9°C 11.6°F-11.3°C 48% 5.4 mph NE8.7 kmh NE 9.8 mph15.8 kmh 30.81 in1043.3 mb 0.00 in0.0 mm 0.00 in0.0 mm 0.00 in0.0 mm
01:07 PM 23.2°F-4.9°C 11.6°F-11.3°C 48% 3.1 mph E5.0 kmh E 4.5 mph7.2 kmh 30.81 in1043.3 mb 0.00 in0.0 mm 0.00 in0.0 mm 0.00 in0.0 mm
01:02 PM 23.5°F-4.7°C 12.2°F-11.0°C 49% 5.4 mph E8.7 kmh E 6.9 mph11.1 kmh 30.81 in1043.3 mb 0.00 in0.0 mm 0.00 in0.0 mm 0.00 in0.0 mm
12:57 PM 23.0°F-5.0°C 11.7°F-11.3°C 49% 3.8 mph SE6.1 kmh SE 5.4 mph8.7 kmh 30.81 in1043.3 mb 0.00 in0.0 mm 0.00 in0.0 mm 0.00 in0.0 mm
12:52 PM 23.0°F-5.0°C 11.7°F-11.3°C 49% 3.8 mph NE6.1 kmh NE 6.0 mph9.7 kmh 30.81 in1043.3 mb 0.00 in0.0 mm 0.00 in0.0 mm 0.00 in0.0 mm
12:47 PM 22.6°F-5.2°C 11.7°F-11.3°C 50% 2.2 mph S3.5 kmh S 4.5 mph7.2 kmh 30.82 in1043.7 mb 0.00 in0.0 mm 0.00 in0.0 mm 0.00 in0.0 mm
12:42 PM 22.5°F-5.3°C 11.5°F-11.4°C 50% 4.5 mph SW7.2 kmh SW 6.9 mph11.1 kmh 30.81 in1043.3 mb 0.00 in0.0 mm 0.00 in0.0 mm 0.00 in0.0 mm
12:37 PM 22.3°F-5.4°C 11.6°F-11.3°C 51% 5.4 mph 8.7 kmh 7.6 mph12.2 kmh 30.81 in1043.3 mb 0.00 in0.0 mm 0.00 in0.0 mm 0.00 in0.0 mm
12:32 PM 22.1°F-5.5°C 11.5°F-11.4°C 51% 5.4 mph SE8.7 kmh SE 8.3 mph13.4 kmh 30.81 in1043.3 mb 0.00 in0.0 mm 0.00 in0.0 mm 0.00 in0.0 mm
12:27 PM 21.7°F-5.7°C 11.2°F-11.6°C 51% 4.5 mph NE7.2 kmh NE 7.6 mph12.2 kmh 30.82 in1043.7 mb 0.00 in0.0 mm 0.00 in0.0 mm 0.00 in0.0 mm
12:22 PM 21.7°F-5.7°C 11.2°F-11.6°C 51% 6.0 mph SE9.7 kmh SE 9.2 mph14.8 kmh 30.44 in1030.8 mb 0.00 in0.0 mm 0.00 in0.0 mm 0.00 in0.0 mm
12:17 PM 22.1°F-5.5°C 11.5°F-11.4°C 51% 5.4 mph 8.7 kmh 7.6 mph12.2 kmh 30.82 in1043.7 mb 0.00 in0.0 mm 0.00 in0.0 mm 0.00 in0.0 mm
12:12 PM 22.1°F-5.5°C 11.5°F-11.4°C 51% 5.4 mph S8.7 kmh S 8.3 mph13.4 kmh 30.82 in1043.7 mb 0.00 in0.0 mm 0.00 in0.0 mm 0.00 in0.0 mm
12:07 PM 21.7°F-5.7°C 11.2°F-11.6°C 51% 5.4 mph NE8.7 kmh NE 9.8 mph15.8 kmh 30.82 in1043.7 mb 0.00 in0.0 mm 0.00 in0.0 mm 0.00 in0.0 mm
12:02 PM 21.4°F-5.9°C 10.8°F-11.8°C 51% 5.4 mph NE8.7 kmh NE 9.2 mph14.8 kmh 30.44 in1030.8 mb 0.00 in0.0 mm 0.00 in0.0 mm 0.00 in0.0 mm
11:57 AM 22.3°F-5.4°C 11.9°F-11.2°C 52% 3.1 mph 5.0 kmh 6.9 mph11.1 kmh 30.82 in1043.7 mb 0.00 in0.0 mm 0.00 in0.0 mm 0.00 in0.0 mm
11:52 AM 21.4°F-5.9°C 11.1°F-11.6°C 52% 3.8 mph E6.1 kmh E 4.5 mph7.2 kmh 30.81 in1043.3 mb 0.00 in0.0 mm 0.00 in0.0 mm 0.00 in0.0 mm
11:47 AM 21.4°F-5.9°C 11.1°F-11.6°C 52% 10.7 mph NE17.2 kmh NE 13.0 mph20.9 kmh 30.82 in1043.7 mb 0.00 in0.0 mm 0.00 in0.0 mm 0.00 in0.0 mm
11:42 AM 21.4°F-5.9°C 11.4°F-11.4°C 53% 4.5 mph E7.2 kmh E 11.4 mph18.3 kmh 30.44 in1030.8 mb 0.00 in0.0 mm 0.00 in0.0 mm 0.00 in0.0 mm
11:37 AM 21.0°F-6.1°C 11.3°F-11.5°C 54% 5.4 mph NE8.7 kmh NE 6.9 mph11.1 kmh 30.82 in1043.7 mb 0.00 in0.0 mm 0.00 in0.0 mm 0.00 in0.0 mm
11:32 AM 20.8°F-6.2°C 11.2°F-11.6°C 54% 6.0 mph 9.7 kmh 10.7 mph17.2 kmh 30.82 in1043.7 mb 0.00 in0.0 mm 0.00 in0.0 mm 0.00 in0.0 mm
11:27 AM 20.7°F-6.3°C 11.0°F-11.7°C 54% 3.1 mph ENE5.0 kmh ENE 5.4 mph8.7 kmh 30.83 in1044.0 mb 0.00 in0.0 mm 0.00 in0.0 mm 0.00 in0.0 mm
11:22 AM 20.3°F-6.5°C 10.7°F-11.8°C 54% 6.0 mph NE9.7 kmh NE 9.2 mph14.8 kmh 30.45 in1031.2 mb 0.00 in0.0 mm 0.00 in0.0 mm 0.00 in0.0 mm
11:17 AM 20.3°F-6.5°C 11.0°F-11.7°C 55% 3.8 mph SE6.1 kmh SE 5.4 mph8.7 kmh 30.82 in1043.7 mb 0.00 in0.0 mm 0.00 in0.0 mm 0.00 in0.0 mm
11:12 AM 20.1°F-6.6°C 10.8°F-11.8°C 55% 5.4 mph 8.7 kmh 8.3 mph13.4 kmh 30.83 in1044.0 mb 0.00 in0.0 mm 0.00 in0.0 mm 0.00 in0.0 mm
11:07 AM 19.9°F-6.7°C 10.6°F-11.9°C 55% 3.1 mph E5.0 kmh E 6.9 mph11.1 kmh 30.82 in1043.7 mb 0.00 in0.0 mm 0.00 in0.0 mm 0.00 in0.0 mm
11:02 AM 19.4°F-7.0°C 10.1°F-12.2°C 55% 3.8 mph WNW6.1 kmh WNW 6.9 mph11.1 kmh 30.45 in1031.2 mb 0.00 in0.0 mm 0.00 in0.0 mm 0.00 in0.0 mm
10:57 AM 19.6°F-6.9°C 10.3°F-12.1°C 55% 6.0 mph NE9.7 kmh NE 9.8 mph15.8 kmh 30.82 in1043.7 mb 0.00 in0.0 mm 0.00 in0.0 mm 0.00 in0.0 mm
10:52 AM 19.6°F-6.9°C 10.3°F-12.1°C 55% 4.5 mph E7.2 kmh E 6.9 mph11.1 kmh 30.82 in1043.7 mb 0.00 in0.0 mm 0.00 in0.0 mm 0.00 in0.0 mm
10:47 AM 19.4°F-7.0°C 10.1°F-12.2°C 55% 4.5 mph E7.2 kmh E 7.6 mph12.2 kmh 30.82 in1043.7 mb 0.00 in0.0 mm 0.00 in0.0 mm 0.00 in0.0 mm
10:42 AM 19.0°F-7.2°C 8.7°F-12.9°C 51% 2.2 mph E3.5 kmh E 4.5 mph7.2 kmh 30.82 in1043.7 mb 0.00 in0.0 mm 0.00 in0.0 mm 0.00 in0.0 mm
10:37 AM 18.7°F-7.4°C 8.3°F-13.2°C 51% 3.1 mph SE5.0 kmh SE 6.0 mph9.7 kmh 30.82 in1043.7 mb 0.00 in0.0 mm 0.00 in0.0 mm 0.00 in0.0 mm
10:32 AM 18.7°F-7.4°C 8.3°F-13.2°C 51% 5.4 mph E8.7 kmh E 7.6 mph12.2 kmh 30.82 in1043.7 mb 0.00 in0.0 mm 0.00 in0.0 mm 0.00 in0.0 mm
10:27 AM 18.7°F-7.4°C 8.3°F-13.2°C 51% 4.5 mph E7.2 kmh E 6.9 mph11.1 kmh 30.82 in1043.7 mb 0.00 in0.0 mm 0.00 in0.0 mm 0.00 in0.0 mm
10:22 AM 18.5°F-7.5°C 8.2°F-13.2°C 51% 3.8 mph SE6.1 kmh SE 6.9 mph11.1 kmh 30.44 in1030.8 mb 0.00 in0.0 mm 0.00 in0.0 mm 0.00 in0.0 mm
10:17 AM 18.3°F-7.6°C 8.3°F-13.2°C 52% 3.1 mph NNW5.0 kmh NNW 6.9 mph11.1 kmh 30.82 in1043.7 mb 0.00 in0.0 mm 0.00 in0.0 mm 0.00 in0.0 mm
10:12 AM 18.1°F-7.7°C 8.1°F-13.3°C 52% 4.5 mph 7.2 kmh 6.9 mph11.1 kmh 30.82 in1043.7 mb 0.00 in0.0 mm 0.00 in0.0 mm 0.00 in0.0 mm
10:07 AM 18.0°F-7.8°C 8.0°F-13.3°C 52% 3.1 mph 5.0 kmh 6.9 mph11.1 kmh 30.82 in1043.7 mb 0.00 in0.0 mm 0.00 in0.0 mm 0.00 in0.0 mm
10:02 AM 17.6°F-8.0°C 7.6°F-13.6°C 52% 5.4 mph NE8.7 kmh NE 7.6 mph12.2 kmh 30.82 in1043.7 mb 0.00 in0.0 mm 0.00 in0.0 mm 0.00 in0.0 mm
09:57 AM 17.1°F-8.3°C 7.4°F-13.7°C 53% 4.5 mph 7.2 kmh 8.3 mph13.4 kmh 30.81 in1043.3 mb 0.00 in0.0 mm 0.00 in0.0 mm 0.00 in0.0 mm
09:52 AM 17.1°F-8.3°C 7.7°F-13.5°C 54% 3.8 mph NE6.1 kmh NE 6.9 mph11.1 kmh 30.82 in1043.7 mb 0.00 in0.0 mm 0.00 in0.0 mm 0.00 in0.0 mm
09:47 AM 16.9°F-8.4°C 7.5°F-13.6°C 54% 3.8 mph SE6.1 kmh SE 6.0 mph9.7 kmh 30.81 in1043.3 mb 0.00 in0.0 mm 0.00 in0.0 mm 0.00 in0.0 mm
09:42 AM 16.9°F-8.4°C 7.5°F-13.6°C 54% 3.1 mph E5.0 kmh E 7.6 mph12.2 kmh 30.81 in1043.3 mb 0.00 in0.0 mm 0.00 in0.0 mm 0.00 in0.0 mm
09:37 AM 16.7°F-8.5°C 7.6°F-13.6°C 55% 4.5 mph NE7.2 kmh NE 8.3 mph13.4 kmh 30.81 in1043.3 mb 0.00 in0.0 mm 0.00 in0.0 mm 0.00 in0.0 mm
09:32 AM 16.5°F-8.6°C 7.4°F-13.7°C 55% 3.8 mph 6.1 kmh 5.4 mph8.7 kmh 30.82 in1043.7 mb 0.00 in0.0 mm 0.00 in0.0 mm 0.00 in0.0 mm
09:27 AM 16.3°F-8.7°C 7.5°F-13.6°C 56% 3.1 mph NE5.0 kmh NE 5.4 mph8.7 kmh 30.81 in1043.3 mb 0.00 in0.0 mm 0.00 in0.0 mm 0.00 in0.0 mm
09:22 AM 16.2°F-8.8°C 7.6°F-13.6°C 57% 3.8 mph NE6.1 kmh NE 5.4 mph8.7 kmh 30.81 in1043.3 mb 0.00 in0.0 mm 0.00 in0.0 mm 0.00 in0.0 mm
09:17 AM 15.8°F-9.0°C 7.6°F-13.6°C 58% 3.1 mph E5.0 kmh E 5.4 mph8.7 kmh 30.81 in1043.3 mb 0.00 in0.0 mm 0.00 in0.0 mm 0.00 in0.0 mm
09:12 AM 15.6°F-9.1°C 7.9°F-13.4°C 60% 3.8 mph NE6.1 kmh NE 6.9 mph11.1 kmh 30.82 in1043.7 mb 0.00 in0.0 mm 0.00 in0.0 mm 0.00 in0.0 mm
09:07 AM 15.3°F-9.3°C 7.5°F-13.6°C 60% 3.8 mph NE6.1 kmh NE 4.5 mph7.2 kmh 30.81 in1043.3 mb 0.00 in0.0 mm 0.00 in0.0 mm 0.00 in0.0 mm
09:02 AM 14.5°F-9.7°C 7.1°F-13.8°C 61% 3.8 mph 6.1 kmh 8.3 mph13.4 kmh 30.82 in1043.7 mb 0.00 in0.0 mm 0.00 in0.0 mm 0.00 in0.0 mm
08:57 AM 13.6°F-10.2°C 6.3°F-14.3°C 61% 4.5 mph 7.2 kmh 8.3 mph13.4 kmh 30.82 in1043.7 mb 0.00 in0.0 mm 0.00 in0.0 mm 0.00 in0.0 mm
08:52 AM 13.6°F-10.2°C 6.3°F-14.3°C 61% 3.8 mph E6.1 kmh E 7.6 mph12.2 kmh 30.82 in1043.7 mb 0.00 in0.0 mm 0.00 in0.0 mm 0.00 in0.0 mm
08:47 AM 13.6°F-10.2°C 6.3°F-14.3°C 61% 1.6 mph SE2.6 kmh SE 3.8 mph6.1 kmh 30.82 in1043.7 mb 0.00 in0.0 mm 0.00 in0.0 mm 0.00 in0.0 mm
08:42 AM 13.5°F-10.3°C 6.1°F-14.4°C 61% 3.1 mph SE5.0 kmh SE 6.0 mph9.7 kmh 30.45 in1031.2 mb 0.00 in0.0 mm 0.00 in0.0 mm 0.00 in0.0 mm
08:37 AM 13.5°F-10.3°C 6.1°F-14.4°C 61% 3.1 mph E5.0 kmh E 6.0 mph9.7 kmh 30.82 in1043.7 mb 0.00 in0.0 mm 0.00 in0.0 mm 0.00 in0.0 mm
08:32 AM 13.5°F-10.3°C 6.1°F-14.4°C 61% 6.9 mph ENE11.1 kmh ENE 9.2 mph14.8 kmh 30.82 in1043.7 mb 0.00 in0.0 mm 0.00 in0.0 mm 0.00 in0.0 mm
08:27 AM 13.5°F-10.3°C 6.1°F-14.4°C 61% 2.2 mph 3.5 kmh 3.8 mph6.1 kmh 30.83 in1044.0 mb 0.00 in0.0 mm 0.00 in0.0 mm 0.00 in0.0 mm
08:22 AM 13.5°F-10.3°C 6.1°F-14.4°C 61% 3.8 mph NE6.1 kmh NE 6.0 mph9.7 kmh 30.83 in1044.0 mb 0.00 in0.0 mm 0.00 in0.0 mm 0.00 in0.0 mm
08:17 AM 13.5°F-10.3°C 6.1°F-14.4°C 61% 2.2 mph W3.5 kmh W 4.5 mph7.2 kmh 30.82 in1043.7 mb 0.00 in0.0 mm 0.00 in0.0 mm 0.00 in0.0 mm
08:12 AM 13.6°F-10.2°C 6.3°F-14.3°C 61% 2.2 mph NE3.5 kmh NE 4.5 mph7.2 kmh 30.83 in1044.0 mb 0.00 in0.0 mm 0.00 in0.0 mm 0.00 in0.0 mm
08:07 AM 13.5°F-10.3°C 6.1°F-14.4°C 61% 2.2 mph NE3.5 kmh NE 4.5 mph7.2 kmh 30.82 in1043.7 mb 0.00 in0.0 mm 0.00 in0.0 mm 0.00 in0.0 mm
08:02 AM 13.6°F-10.2°C 6.3°F-14.3°C 61% 2.2 mph NE3.5 kmh NE 4.5 mph7.2 kmh 30.44 in1030.8 mb 0.00 in0.0 mm 0.00 in0.0 mm 0.00 in0.0 mm
07:57 AM 13.8°F-10.1°C 6.4°F-14.2°C 61% 3.8 mph NE6.1 kmh NE 6.0 mph9.7 kmh 30.82 in1043.7 mb 0.00 in0.0 mm 0.00 in0.0 mm 0.00 in0.0 mm
07:52 AM 13.8°F-10.1°C 6.4°F-14.2°C 61% 5.4 mph NE8.7 kmh NE 8.3 mph13.4 kmh 30.82 in1043.7 mb 0.00 in0.0 mm 0.00 in0.0 mm 0.00 in0.0 mm
07:47 AM 13.8°F-10.1°C 6.4°F-14.2°C 61% 4.5 mph 7.2 kmh 6.9 mph11.1 kmh 30.82 in1043.7 mb 0.00 in0.0 mm 0.00 in0.0 mm 0.00 in0.0 mm
07:42 AM 13.8°F-10.1°C 6.4°F-14.2°C 61% 3.1 mph E5.0 kmh E 5.4 mph8.7 kmh 30.81 in1043.3 mb 0.00 in0.0 mm 0.00 in0.0 mm 0.00 in0.0 mm
07:37 AM 13.8°F-10.1°C 6.4°F-14.2°C 61% 3.1 mph 5.0 kmh 6.0 mph9.7 kmh 30.81 in1043.3 mb 0.00 in0.0 mm 0.00 in0.0 mm 0.00 in0.0 mm
07:32 AM 13.8°F-10.1°C 6.4°F-14.2°C 61% 3.1 mph NE5.0 kmh NE 6.0 mph9.7 kmh 30.81 in1043.3 mb 0.00 in0.0 mm 0.00 in0.0 mm 0.00 in0.0 mm
07:27 AM 14.0°F-10.0°C 6.1°F-14.4°C 59% 2.2 mph NW3.5 kmh NW 4.5 mph7.2 kmh 30.81 in1043.3 mb 0.00 in0.0 mm 0.00 in0.0 mm 0.00 in0.0 mm
07:22 AM 14.0°F-10.0°C 6.1°F-14.4°C 59% 3.1 mph NE5.0 kmh NE 4.5 mph7.2 kmh 30.81 in1043.3 mb 0.00 in0.0 mm 0.00 in0.0 mm 0.00 in0.0 mm
07:17 AM 14.0°F-10.0°C 6.1°F-14.4°C 59% 3.1 mph 5.0 kmh 7.6 mph12.2 kmh 30.81 in1043.3 mb 0.00 in0.0 mm 0.00 in0.0 mm 0.00 in0.0 mm
07:12 AM 14.0°F-10.0°C 6.1°F-14.4°C 59% 3.1 mph E5.0 kmh E 6.0 mph9.7 kmh 30.81 in1043.3 mb 0.00 in0.0 mm 0.00 in0.0 mm 0.00 in0.0 mm
07:07 AM 14.2°F-9.9°C 6.3°F-14.3°C 59% 3.8 mph NE6.1 kmh NE 5.4 mph8.7 kmh 30.81 in1043.3 mb 0.00 in0.0 mm 0.00 in0.0 mm 0.00 in0.0 mm
07:02 AM 14.2°F-9.9°C 6.3°F-14.3°C 59% 4.5 mph 7.2 kmh 6.0 mph9.7 kmh 30.81 in1043.3 mb 0.00 in0.0 mm 0.00 in0.0 mm 0.00 in0.0 mm
06:57 AM 14.2°F-9.9°C 6.3°F-14.3°C 59% 3.8 mph E6.1 kmh E 6.0 mph9.7 kmh 30.81 in1043.3 mb 0.00 in0.0 mm 0.00 in0.0 mm 0.00 in0.0 mm
06:52 AM 14.2°F-9.9°C 6.3°F-14.3°C 59% 5.4 mph NE8.7 kmh NE 7.6 mph12.2 kmh 30.81 in1043.3 mb 0.00 in0.0 mm 0.00 in0.0 mm 0.00 in0.0 mm
06:47 AM 14.2°F-9.9°C 6.3°F-14.3°C 59% 2.2 mph NE3.5 kmh NE 5.4 mph8.7 kmh 30.81 in1043.3 mb 0.00 in0.0 mm 0.00 in0.0 mm 0.00 in0.0 mm
06:42 AM 14.2°F-9.9°C 6.0°F-14.4°C 58% 4.5 mph NE7.2 kmh NE 6.9 mph11.1 kmh 30.81 in1043.3 mb 0.00 in0.0 mm 0.00 in0.0 mm 0.00 in0.0 mm
06:37 AM 14.4°F-9.8°C 6.2°F-14.3°C 58% 2.2 mph 3.5 kmh 3.8 mph6.1 kmh 30.80 in1043.0 mb 0.00 in0.0 mm 0.00 in0.0 mm 0.00 in0.0 mm
06:32 AM 14.4°F-9.8°C 6.2°F-14.3°C 58% 3.1 mph NE5.0 kmh NE 3.8 mph6.1 kmh 30.81 in1043.3 mb 0.00 in0.0 mm 0.00 in0.0 mm 0.00 in0.0 mm
06:27 AM 14.4°F-9.8°C 6.2°F-14.3°C 58% 4.5 mph 7.2 kmh 7.6 mph12.2 kmh 30.80 in1043.0 mb 0.00 in0.0 mm 0.00 in0.0 mm 0.00 in0.0 mm
06:22 AM 14.5°F-9.7°C 6.4°F-14.2°C 58% 3.1 mph 5.0 kmh 3.8 mph6.1 kmh 30.81 in1043.3 mb 0.00 in0.0 mm 0.00 in0.0 mm 0.00 in0.0 mm
06:17 AM 14.5°F-9.7°C 6.4°F-14.2°C 58% 3.1 mph SE5.0 kmh SE 4.5 mph7.2 kmh 30.81 in1043.3 mb 0.00 in0.0 mm 0.00 in0.0 mm 0.00 in0.0 mm
06:12 AM 14.5°F-9.7°C 6.1°F-14.4°C 57% 1.6 mph 2.6 kmh 2.2 mph3.5 kmh 30.81 in1043.3 mb 0.00 in0.0 mm 0.00 in0.0 mm 0.00 in0.0 mm
06:07 AM 14.7°F-9.6°C 6.3°F-14.3°C 57% 3.1 mph ENE5.0 kmh ENE 3.8 mph6.1 kmh 30.81 in1043.3 mb 0.00 in0.0 mm 0.00 in0.0 mm 0.00 in0.0 mm
06:02 AM 14.7°F-9.6°C 6.3°F-14.3°C 57% 3.8 mph NE6.1 kmh NE 6.0 mph9.7 kmh 30.81 in1043.3 mb 0.00 in0.0 mm 0.00 in0.0 mm 0.00 in0.0 mm
05:57 AM 14.7°F-9.6°C 6.3°F-14.3°C 57% 3.1 mph 5.0 kmh 3.8 mph6.1 kmh 30.81 in1043.3 mb 0.00 in0.0 mm 0.00 in0.0 mm 0.00 in0.0 mm
05:52 AM 14.7°F-9.6°C 6.3°F-14.3°C 57% 6.9 mph 11.1 kmh 12.1 mph19.5 kmh 30.80 in1043.0 mb 0.00 in0.0 mm 0.00 in0.0 mm 0.00 in0.0 mm
05:47 AM 14.9°F-9.5°C 6.5°F-14.2°C 57% 3.1 mph NE5.0 kmh NE 4.5 mph7.2 kmh 30.81 in1043.3 mb 0.00 in0.0 mm 0.00 in0.0 mm 0.00 in0.0 mm
05:42 AM 14.9°F-9.5°C 6.2°F-14.3°C 56% 4.5 mph 7.2 kmh 8.3 mph13.4 kmh 30.81 in1043.3 mb 0.00 in0.0 mm 0.00 in0.0 mm 0.00 in0.0 mm
05:37 AM 14.9°F-9.5°C 6.2°F-14.3°C 56% 3.1 mph NE5.0 kmh NE 6.9 mph11.1 kmh 30.80 in1043.0 mb 0.00 in0.0 mm 0.00 in0.0 mm 0.00 in0.0 mm
05:32 AM 15.1°F-9.4°C 6.4°F-14.2°C 56% 3.1 mph E5.0 kmh E 5.4 mph8.7 kmh 30.80 in1043.0 mb 0.00 in0.0 mm 0.00 in0.0 mm 0.00 in0.0 mm
05:27 AM 15.1°F-9.4°C 6.4°F-14.2°C 56% 5.4 mph 8.7 kmh 8.3 mph13.4 kmh 30.80 in1043.0 mb 0.00 in0.0 mm 0.00 in0.0 mm 0.00 in0.0 mm
05:22 AM 15.1°F-9.4°C 6.4°F-14.2°C 56% 3.8 mph NE6.1 kmh NE 5.4 mph8.7 kmh 30.80 in1043.0 mb 0.00 in0.0 mm 0.00 in0.0 mm 0.00 in0.0 mm
05:17 AM 15.3°F-9.3°C 6.5°F-14.2°C 56% 4.5 mph NE7.2 kmh NE 6.0 mph9.7 kmh 30.81 in1043.3 mb 0.00 in0.0 mm 0.00 in0.0 mm 0.00 in0.0 mm
05:12 AM 15.3°F-9.3°C 6.5°F-14.2°C 56% 3.1 mph E5.0 kmh E 4.5 mph7.2 kmh 30.80 in1043.0 mb 0.00 in0.0 mm 0.00 in0.0 mm 0.00 in0.0 mm
05:07 AM 15.3°F-9.3°C 6.5°F-14.2°C 56% 3.8 mph E6.1 kmh E 5.4 mph8.7 kmh 30.80 in1043.0 mb 0.00 in0.0 mm 0.00 in0.0 mm 0.00 in0.0 mm
05:02 AM 15.4°F-9.2°C 6.7°F-14.1°C 56% 2.2 mph E3.5 kmh E 3.8 mph6.1 kmh 30.81 in1043.3 mb 0.00 in0.0 mm 0.00 in0.0 mm 0.00 in0.0 mm
04:57 AM 15.4°F-9.2°C 6.7°F-14.1°C 56% 3.1 mph NE5.0 kmh NE 5.4 mph8.7 kmh 30.81 in1043.3 mb 0.00 in0.0 mm 0.00 in0.0 mm 0.00 in0.0 mm
04:52 AM 15.6°F-9.1°C 6.9°F-13.9°C 56% 3.8 mph 6.1 kmh 6.0 mph9.7 kmh 30.81 in1043.3 mb 0.00 in0.0 mm 0.00 in0.0 mm 0.00 in0.0 mm
04:47 AM 15.6°F-9.1°C 6.9°F-13.9°C 56% 2.2 mph E3.5 kmh E 3.1 mph5.0 kmh 30.81 in1043.3 mb 0.00 in0.0 mm 0.00 in0.0 mm 0.00 in0.0 mm
04:42 AM 15.6°F-9.1°C 6.6°F-14.1°C 55% 3.8 mph NE6.1 kmh NE 6.0 mph9.7 kmh 30.79 in1042.7 mb 0.00 in0.0 mm 0.00 in0.0 mm 0.00 in0.0 mm
04:37 AM 15.8°F-9.0°C 6.5°F-14.2°C 54% 3.8 mph NE6.1 kmh NE 6.9 mph11.1 kmh 30.80 in1043.0 mb 0.00 in0.0 mm 0.00 in0.0 mm 0.00 in0.0 mm
04:32 AM 15.8°F-9.0°C 6.5°F-14.2°C 54% 3.8 mph NE6.1 kmh NE 6.0 mph9.7 kmh 30.80 in1043.0 mb 0.00 in0.0 mm 0.00 in0.0 mm 0.00 in0.0 mm
04:27 AM 16.0°F-8.9°C 6.7°F-14.1°C 54% 3.8 mph WNW6.1 kmh WNW 6.9 mph11.1 kmh 30.80 in1043.0 mb 0.00 in0.0 mm 0.00 in0.0 mm 0.00 in0.0 mm
04:22 AM 16.0°F-8.9°C 6.7°F-14.1°C 54% 5.4 mph SE8.7 kmh SE 8.3 mph13.4 kmh 30.81 in1043.3 mb 0.00 in0.0 mm 0.00 in0.0 mm 0.00 in0.0 mm
04:17 AM 16.0°F-8.9°C 6.7°F-14.1°C 54% 4.5 mph NE7.2 kmh NE 6.9 mph11.1 kmh 30.80 in1043.0 mb 0.00 in0.0 mm 0.00 in0.0 mm 0.00 in0.0 mm
04:12 AM 16.0°F-8.9°C 6.7°F-14.1°C 54% 6.0 mph 9.7 kmh 8.3 mph13.4 kmh 30.80 in1043.0 mb 0.00 in0.0 mm 0.00 in0.0 mm 0.00 in0.0 mm
04:07 AM 16.2°F-8.8°C 6.8°F-14.0°C 54% 3.1 mph NE5.0 kmh NE 5.4 mph8.7 kmh 30.80 in1043.0 mb 0.00 in0.0 mm 0.00 in0.0 mm 0.00 in0.0 mm
04:02 AM 16.0°F-8.9°C 6.7°F-14.1°C 54% 6.0 mph NNE9.7 kmh NNE 8.3 mph13.4 kmh 30.80 in1043.0 mb 0.00 in0.0 mm 0.00 in0.0 mm 0.00 in0.0 mm
03:57 AM 16.2°F-8.8°C 6.8°F-14.0°C 54% 3.8 mph NE6.1 kmh NE 6.0 mph9.7 kmh 30.80 in1043.0 mb 0.00 in0.0 mm 0.00 in0.0 mm 0.00 in0.0 mm
03:52 AM 16.3°F-8.7°C 6.7°F-14.1°C 53% 3.1 mph 5.0 kmh 5.4 mph8.7 kmh 30.80 in1043.0 mb 0.00 in0.0 mm 0.00 in0.0 mm 0.00 in0.0 mm
03:47 AM 16.3°F-8.7°C 6.7°F-14.1°C 53% 3.8 mph NE6.1 kmh NE 6.0 mph9.7 kmh 30.79 in1042.7 mb 0.00 in0.0 mm 0.00 in0.0 mm 0.00 in0.0 mm
03:42 AM 16.3°F-8.7°C 6.7°F-14.1°C 53% 5.4 mph NE8.7 kmh NE 8.3 mph13.4 kmh 30.79 in1042.7 mb 0.00 in0.0 mm 0.00 in0.0 mm 0.00 in0.0 mm
03:37 AM 16.5°F-8.6°C 6.9°F-13.9°C 53% 3.1 mph NE5.0 kmh NE 5.4 mph8.7 kmh 30.79 in1042.7 mb 0.00 in0.0 mm 0.00 in0.0 mm 0.00 in0.0 mm
03:32 AM 16.5°F-8.6°C 6.9°F-13.9°C 53% 3.1 mph 5.0 kmh 6.0 mph9.7 kmh 30.80 in1043.0 mb 0.00 in0.0 mm 0.00 in0.0 mm 0.00 in0.0 mm
03:27 AM 16.5°F-8.6°C 6.9°F-13.9°C 53% 5.4 mph NE8.7 kmh NE 7.6 mph12.2 kmh 30.79 in1042.7 mb 0.00 in0.0 mm 0.00 in0.0 mm 0.00 in0.0 mm
03:22 AM 16.5°F-8.6°C 6.9°F-13.9°C 53% 3.8 mph E6.1 kmh E 6.9 mph11.1 kmh 30.80 in1043.0 mb 0.00 in0.0 mm 0.00 in0.0 mm 0.00 in0.0 mm
03:17 AM 16.7°F-8.5°C 7.1°F-13.8°C 53% 3.8 mph SE6.1 kmh SE 6.0 mph9.7 kmh 30.79 in1042.7 mb 0.00 in0.0 mm 0.00 in0.0 mm 0.00 in0.0 mm
03:12 AM 16.7°F-8.5°C 7.1°F-13.8°C 53% 4.5 mph NE7.2 kmh NE 7.6 mph12.2 kmh 30.79 in1042.7 mb 0.00 in0.0 mm 0.00 in0.0 mm 0.00 in0.0 mm
03:07 AM 16.7°F-8.5°C 7.1°F-13.8°C 53% 3.1 mph NE5.0 kmh NE 6.0 mph9.7 kmh 30.79 in1042.7 mb 0.00 in0.0 mm 0.00 in0.0 mm 0.00 in0.0 mm
03:02 AM 16.9°F-8.4°C 7.2°F-13.8°C 53% 3.1 mph NNE5.0 kmh NNE 4.5 mph7.2 kmh 30.79 in1042.7 mb 0.00 in0.0 mm 0.00 in0.0 mm 0.00 in0.0 mm
02:57 AM 16.9°F-8.4°C 7.0°F-13.9°C 52% 4.5 mph NE7.2 kmh NE 6.0 mph9.7 kmh 30.79 in1042.7 mb 0.00 in0.0 mm 0.00 in0.0 mm 0.00 in0.0 mm
02:52 AM 17.1°F-8.3°C 7.1°F-13.8°C 52% 4.5 mph 7.2 kmh 6.0 mph9.7 kmh 30.79 in1042.7 mb 0.00 in0.0 mm 0.00 in0.0 mm 0.00 in0.0 mm
02:47 AM 17.2°F-8.2°C 7.3°F-13.7°C 52% 3.8 mph NNW6.1 kmh NNW 9.8 mph15.8 kmh 30.79 in1042.7 mb 0.00 in0.0 mm 0.00 in0.0 mm 0.00 in0.0 mm
02:42 AM 17.2°F-8.2°C 7.3°F-13.7°C 52% 6.0 mph NE9.7 kmh NE 9.8 mph15.8 kmh 30.79 in1042.7 mb 0.00 in0.0 mm 0.00 in0.0 mm 0.00 in0.0 mm
02:37 AM 17.2°F-8.2°C 7.3°F-13.7°C 52% 2.2 mph SE3.5 kmh SE 3.1 mph5.0 kmh 30.79 in1042.7 mb 0.00 in0.0 mm 0.00 in0.0 mm 0.00 in0.0 mm
02:32 AM 17.2°F-8.2°C 7.3°F-13.7°C 52% 5.4 mph NNW8.7 kmh NNW 12.1 mph19.5 kmh 30.79 in1042.7 mb 0.00 in0.0 mm 0.00 in0.0 mm 0.00 in0.0 mm
02:27 AM 17.2°F-8.2°C 7.3°F-13.7°C 52% 4.5 mph NE7.2 kmh NE 6.9 mph11.1 kmh 30.79 in1042.7 mb 0.00 in0.0 mm 0.00 in0.0 mm 0.00 in0.0 mm
02:22 AM 17.4°F-8.1°C 7.5°F-13.6°C 52% 4.5 mph SE7.2 kmh SE 6.9 mph11.1 kmh 30.79 in1042.7 mb 0.00 in0.0 mm 0.00 in0.0 mm 0.00 in0.0 mm
02:17 AM 17.4°F-8.1°C 7.5°F-13.6°C 52% 3.1 mph E5.0 kmh E 5.4 mph8.7 kmh 30.79 in1042.7 mb 0.00 in0.0 mm 0.00 in0.0 mm 0.00 in0.0 mm
02:12 AM 17.6°F-8.0°C 7.3°F-13.7°C 51% 3.8 mph E6.1 kmh E 6.0 mph9.7 kmh 30.79 in1042.7 mb 0.00 in0.0 mm 0.00 in0.0 mm 0.00 in0.0 mm
02:07 AM 17.6°F-8.0°C 7.3°F-13.7°C 51% 5.4 mph NE8.7 kmh NE 9.8 mph15.8 kmh 30.79 in1042.7 mb 0.00 in0.0 mm 0.00 in0.0 mm 0.00 in0.0 mm
02:02 AM 17.6°F-8.0°C 7.0°F-13.9°C 50% 6.0 mph 9.7 kmh 8.3 mph13.4 kmh 30.79 in1042.7 mb 0.00 in0.0 mm 0.00 in0.0 mm 0.00 in0.0 mm
01:57 AM 17.8°F-7.9°C 7.2°F-13.8°C 50% 3.8 mph 6.1 kmh 6.9 mph11.1 kmh 30.78 in1042.3 mb 0.00 in0.0 mm 0.00 in0.0 mm 0.00 in0.0 mm
01:52 AM 17.8°F-7.9°C 7.2°F-13.8°C 50% 7.6 mph NE12.2 kmh NE 11.4 mph18.3 kmh 30.78 in1042.3 mb 0.00 in0.0 mm 0.00 in0.0 mm 0.00 in0.0 mm
01:47 AM 17.8°F-7.9°C 7.2°F-13.8°C 50% 3.1 mph 5.0 kmh 6.0 mph9.7 kmh 30.78 in1042.3 mb 0.00 in0.0 mm 0.00 in0.0 mm 0.00 in0.0 mm
01:42 AM 18.0°F-7.8°C 7.4°F-13.7°C 50% 3.8 mph NNE6.1 kmh NNE 5.4 mph8.7 kmh 30.78 in1042.3 mb 0.00 in0.0 mm 0.00 in0.0 mm 0.00 in0.0 mm
01:37 AM 18.0°F-7.8°C 7.4°F-13.7°C 50% 3.8 mph NW6.1 kmh NW 7.6 mph12.2 kmh 30.79 in1042.7 mb 0.00 in0.0 mm 0.00 in0.0 mm 0.00 in0.0 mm
01:32 AM 18.1°F-7.7°C 7.5°F-13.6°C 50% 6.0 mph NE9.7 kmh NE 8.3 mph13.4 kmh 30.78 in1042.3 mb 0.00 in0.0 mm 0.00 in0.0 mm 0.00 in0.0 mm
01:27 AM 18.1°F-7.7°C 7.5°F-13.6°C 50% 4.5 mph SE7.2 kmh SE 6.9 mph11.1 kmh 30.79 in1042.7 mb 0.00 in0.0 mm 0.00 in0.0 mm 0.00 in0.0 mm
01:22 AM 18.1°F-7.7°C 7.5°F-13.6°C 50% 3.1 mph NE5.0 kmh NE 4.5 mph7.2 kmh 30.79 in1042.7 mb 0.00 in0.0 mm 0.00 in0.0 mm 0.00 in0.0 mm
01:17 AM 18.3°F-7.6°C 7.4°F-13.7°C 49% 3.8 mph NE6.1 kmh NE 5.4 mph8.7 kmh 30.78 in1042.3 mb 0.00 in0.0 mm 0.00 in0.0 mm 0.00 in0.0 mm
01:12 AM 18.3°F-7.6°C 7.4°F-13.7°C 49% 5.4 mph NE8.7 kmh NE 7.6 mph12.2 kmh 30.79 in1042.7 mb 0.00 in0.0 mm 0.00 in0.0 mm 0.00 in0.0 mm
01:07 AM 18.3°F-7.6°C 7.4°F-13.7°C 49% 5.4 mph E8.7 kmh E 10.7 mph17.2 kmh 30.79 in1042.7 mb 0.00 in0.0 mm 0.00 in0.0 mm 0.00 in0.0 mm
01:02 AM 18.3°F-7.6°C 7.4°F-13.7°C 49% 5.4 mph NE8.7 kmh NE 8.3 mph13.4 kmh 30.78 in1042.3 mb 0.00 in0.0 mm 0.00 in0.0 mm 0.00 in0.0 mm
12:57 AM 18.5°F-7.5°C 7.6°F-13.6°C 49% 3.8 mph 6.1 kmh 5.4 mph8.7 kmh 30.78 in1042.3 mb 0.00 in0.0 mm 0.00 in0.0 mm 0.00 in0.0 mm
12:52 AM 18.5°F-7.5°C 7.6°F-13.6°C 49% 3.8 mph NE6.1 kmh NE 6.0 mph9.7 kmh 30.78 in1042.3 mb 0.00 in0.0 mm 0.00 in0.0 mm 0.00 in0.0 mm
12:47 AM 18.7°F-7.4°C 7.7°F-13.5°C 49% 3.8 mph 6.1 kmh 7.6 mph12.2 kmh 30.78 in1042.3 mb 0.00 in0.0 mm 0.00 in0.0 mm 0.00 in0.0 mm
12:42 AM 18.9°F-7.3°C 7.9°F-13.4°C 49% 6.0 mph NE9.7 kmh NE 6.9 mph11.1 kmh 30.78 in1042.3 mb 0.00 in0.0 mm 0.00 in0.0 mm 0.00 in0.0 mm
12:37 AM 18.9°F-7.3°C 7.9°F-13.4°C 49% 4.5 mph NE7.2 kmh NE 6.0 mph9.7 kmh 30.78 in1042.3 mb 0.00 in0.0 mm 0.00 in0.0 mm 0.00 in0.0 mm
12:32 AM 19.0°F-7.2°C 8.1°F-13.3°C 49% 3.8 mph NE6.1 kmh NE 6.0 mph9.7 kmh 30.78 in1042.3 mb 0.00 in0.0 mm 0.00 in0.0 mm 0.00 in0.0 mm
12:27 AM 19.0°F-7.2°C 7.8°F-13.4°C 48% 3.8 mph 6.1 kmh 7.6 mph12.2 kmh 30.78 in1042.3 mb 0.00 in0.0 mm 0.00 in0.0 mm 0.00 in0.0 mm
12:22 AM 19.0°F-7.2°C 7.8°F-13.4°C 48% 5.4 mph 8.7 kmh 7.6 mph12.2 kmh 30.78 in1042.3 mb 0.00 in0.0 mm 0.00 in0.0 mm 0.00 in0.0 mm
12:17 AM 19.2°F-7.1°C 7.9°F-13.4°C 48% 5.4 mph NE8.7 kmh NE 7.6 mph12.2 kmh 30.78 in1042.3 mb 0.00 in0.0 mm 0.00 in0.0 mm 0.00 in0.0 mm
12:12 AM 19.2°F-7.1°C 7.9°F-13.4°C 48% 3.1 mph NE5.0 kmh NE 4.5 mph7.2 kmh 30.78 in1042.3 mb 0.00 in0.0 mm 0.00 in0.0 mm 0.00 in0.0 mm
12:07 AM 19.2°F-7.1°C 7.9°F-13.4°C 48% 3.8 mph E6.1 kmh E 6.9 mph11.1 kmh 30.78 in1042.3 mb 0.00 in0.0 mm 0.00 in0.0 mm 0.00 in0.0 mm
12:02 AM 19.4°F-7.0°C 9.3°F-12.6°C 52% 3.8 mph E6.1 kmh E 7.6 mph12.2 kmh 30.78 in1042.3 mb 0.00 in0.0 mm 0.00 in0.0 mm 0.00 in0.0 mm